sensor_id;sensor_type;location;lat;lon;timestamp;pressure;altitude;pressure_sealevel;temperature;humidity
31044;BME280;17710;52.520;13.352;2023-02-28T00:02:22;102794.19;;;8.37;42.87
31044;BME280;17710;52.520;13.352;2023-02-28T00:04:49;102797.56;;;8.22;43.06
31044;BME280;17710;52.520;13.352;2023-02-28T00:07:26;102794.78;;;8.04;43.54
31044;BME280;17710;52.520;13.352;2023-02-28T00:09:52;102797.59;;;8.25;43.36
31044;BME280;17710;52.520;13.352;2023-02-28T00:12:19;102793.97;;;8.14;43.66
31044;BME280;17710;52.520;13.352;2023-02-28T00:14:45;102804.72;;;8.38;43.31
31044;BME280;17710;52.520;13.352;2023-02-28T00:17:11;102803.84;;;8.36;43.54
31044;BME280;17710;52.520;13.352;2023-02-28T00:19:39;102795.97;;;8.39;43.48
31044;BME280;17710;52.520;13.352;2023-02-28T00:22:06;102798.13;;;7.83;44.52
31044;BME280;17710;52.520;13.352;2023-02-28T00:24:32;102797.50;;;8.12;44.06
31044;BME280;17710;52.520;13.352;2023-02-28T00:26:58;102798.34;;;8.11;44.24
31044;BME280;17710;52.520;13.352;2023-02-28T00:29:25;102794.88;;;8.13;43.96
31044;BME280;17710;52.520;13.352;2023-02-28T00:31:51;102800.09;;;8.06;43.96
31044;BME280;17710;52.520;13.352;2023-02-28T00:34:18;102800.16;;;8.21;43.47
31044;BME280;17710;52.520;13.352;2023-02-28T00:36:45;102808.13;;;8.28;42.93
31044;BME280;17710;52.520;13.352;2023-02-28T00:39:15;102809.16;;;8.44;43.04
31044;BME280;17710;52.520;13.352;2023-02-28T00:41:42;102804.75;;;8.40;43.13
31044;BME280;17710;52.520;13.352;2023-02-28T00:44:08;102809.94;;;8.34;43.08
31044;BME280;17710;52.520;13.352;2023-02-28T00:46:35;102804.84;;;8.57;42.72
31044;BME280;17710;52.520;13.352;2023-02-28T00:49:01;102803.84;;;8.38;42.80
31044;BME280;17710;52.520;13.352;2023-02-28T00:51:27;102801.06;;;8.23;43.08
31044;BME280;17710;52.520;13.352;2023-02-28T00:53:55;102804.63;;;8.29;42.94
31044;BME280;17710;52.520;13.352;2023-02-28T00:56:21;102806.47;;;8.36;42.87
31044;BME280;17710;52.520;13.352;2023-02-28T00:58:48;102803.00;;;8.44;42.86
31044;BME280;17710;52.520;13.352;2023-02-28T01:01:14;102803.88;;;8.39;42.92
31044;BME280;17710;52.520;13.352;2023-02-28T01:03:41;102808.22;;;8.36;42.90
31044;BME280;17710;52.520;13.352;2023-02-28T01:06:07;102803.72;;;8.24;43.34
31044;BME280;17710;52.520;13.352;2023-02-28T01:08:33;102804.59;;;8.20;43.70
31044;BME280;17710;52.520;13.352;2023-02-28T01:11:08;102799.44;;;8.32;43.40
31044;BME280;17710;52.520;13.352;2023-02-28T01:13:37;102807.97;;;8.04;43.94
31044;BME280;17710;52.520;13.352;2023-02-28T01:16:09;102807.13;;;8.10;44.18
31044;BME280;17710;52.520;13.352;2023-02-28T01:18:35;102807.97;;;8.04;44.68
31044;BME280;17710;52.520;13.352;2023-02-28T01:21:03;102800.88;;;7.97;43.97
31044;BME280;17710;52.520;13.352;2023-02-28T01:23:30;102798.06;;;7.73;44.57
31044;BME280;17710;52.520;13.352;2023-02-28T01:25:57;102793.69;;;7.73;44.91
31044;BME280;17710;52.520;13.352;2023-02-28T01:28:25;102791.91;;;7.75;44.33
31044;BME280;17710;52.520;13.352;2023-02-28T01:30:52;102793.81;;;7.87;44.45
31044;BME280;17710;52.520;13.352;2023-02-28T01:33:18;102792.78;;;7.73;44.47
31044;BME280;17710;52.520;13.352;2023-02-28T01:35:45;102784.13;;;7.86;44.23
31044;BME280;17710;52.520;13.352;2023-02-28T01:38:11;102790.09;;;7.65;44.57
31044;BME280;17710;52.520;13.352;2023-02-28T01:40:38;102784.53;;;7.33;45.66
31044;BME280;17710;52.520;13.352;2023-02-28T01:43:12;102783.69;;;7.37;46.24
31044;BME280;17710;52.520;13.352;2023-02-28T01:45:46;102791.75;;;7.55;46.37
31044;BME280;17710;52.520;13.352;2023-02-28T01:48:13;102784.84;;;7.65;45.93
31044;BME280;17710;52.520;13.352;2023-02-28T01:50:43;102777.59;;;7.40;46.10
31044;BME280;17710;52.520;13.352;2023-02-28T01:53:14;102785.56;;;7.50;45.92
31044;BME280;17710;52.520;13.352;2023-02-28T01:55:45;102786.44;;;7.51;45.94
31044;BME280;17710;52.520;13.352;2023-02-28T01:58:12;102788.13;;;7.44;45.94
31044;BME280;17710;52.520;13.352;2023-02-28T02:00:39;102784.63;;;7.41;45.88
31044;BME280;17710;52.520;13.352;2023-02-28T02:03:12;102790.81;;;7.50;45.81
31044;BME280;17710;52.520;13.352;2023-02-28T02:05:40;102782.88;;;7.44;45.93
31044;BME280;17710;52.520;13.352;2023-02-28T02:08:09;102792.47;;;7.39;46.11
31044;BME280;17710;52.520;13.352;2023-02-28T02:10:40;102788.03;;;7.35;46.23
31044;BME280;17710;52.520;13.352;2023-02-28T02:13:28;102784.31;;;7.13;47.12
31044;BME280;17710;52.520;13.352;2023-02-28T02:16:06;102791.75;;;6.75;48.33
31044;BME280;17710;52.520;13.352;2023-02-28T02:18:42;102797.09;;;6.82;48.07
31044;BME280;17710;52.520;13.352;2023-02-28T02:21:36;102789.06;;;6.69;48.27
31044;BME280;17710;52.520;13.352;2023-02-28T02:24:23;102788.19;;;6.69;47.95
31044;BME280;17710;52.520;13.352;2023-02-28T02:27:05;102790.63;;;6.58;48.51
31044;BME280;17710;52.520;13.352;2023-02-28T02:29:47;102782.91;;;6.70;47.79
31044;BME280;17710;52.520;13.352;2023-02-28T02:32:32;102782.66;;;6.49;48.98
31044;BME280;17710;52.520;13.352;2023-02-28T02:35:11;102785.47;;;6.64;48.73
31044;BME280;17710;52.520;13.352;2023-02-28T02:37:42;102779.09;;;6.46;49.12
31044;BME280;17710;52.520;13.352;2023-02-28T02:40:14;102786.97;;;6.46;49.35
31044;BME280;17710;52.520;13.352;2023-02-28T02:42:48;102779.75;;;6.31;49.67
31044;BME280;17710;52.520;13.352;2023-02-28T02:45:21;102787.63;;;6.29;49.46
31044;BME280;17710;52.520;13.352;2023-02-28T02:47:50;102787.72;;;6.35;49.38
31044;BME280;17710;52.520;13.352;2023-02-28T02:50:21;102783.34;;;6.37;49.36
31044;BME280;17710;52.520;13.352;2023-02-28T02:52:53;102785.81;;;6.25;49.96
31044;BME280;17710;52.520;13.352;2023-02-28T02:55:22;102785.69;;;6.18;49.62
31044;BME280;17710;52.520;13.352;2023-02-28T02:57:52;102784.63;;;6.04;50.39
31044;BME280;17710;52.520;13.352;2023-02-28T03:00:23;102783.09;;;6.19;50.05
31044;BME280;17710;52.520;13.352;2023-02-28T03:02:52;102791.38;;;5.89;50.61
31044;BME280;17710;52.520;13.352;2023-02-28T03:05:25;102796.50;;;5.83;51.09
31044;BME280;17710;52.520;13.352;2023-02-28T03:07:52;102787.75;;;5.84;51.35
31044;BME280;17710;52.520;13.352;2023-02-28T03:10:35;102792.28;;;5.91;51.03
31044;BME280;17710;52.520;13.352;2023-02-28T03:13:34;102793.34;;;6.03;50.33
31044;BME280;17710;52.520;13.352;2023-02-28T03:16:17;102800.16;;;5.91;50.68
31044;BME280;17710;52.520;13.352;2023-02-28T03:18:53;102799.84;;;5.75;50.55
31044;BME280;17710;52.520;13.352;2023-02-28T03:21:27;102796.03;;;5.56;50.67
31044;BME280;17710;52.520;13.352;2023-02-28T03:24:01;102793.66;;;5.70;51.10
31044;BME280;17710;52.520;13.352;2023-02-28T03:26:31;102799.69;;;5.64;51.48
31044;BME280;17710;52.520;13.352;2023-02-28T03:29:02;102803.50;;;5.35;53.06
31044;BME280;17710;52.520;13.352;2023-02-28T03:31:33;102807.13;;;5.41;52.41
31044;BME280;17710;52.520;13.352;2023-02-28T03:34:05;102803.31;;;5.74;51.97
31044;BME280;17710;52.520;13.352;2023-02-28T03:36:37;102807.63;;;5.69;51.82
31044;BME280;17710;52.520;13.352;2023-02-28T03:39:11;102808.53;;;5.71;51.31
31044;BME280;17710;52.520;13.352;2023-02-28T03:41:42;102798.59;;;5.53;52.33
31044;BME280;17710;52.520;13.352;2023-02-28T03:44:15;102808.16;;;5.49;52.31
31044;BME280;17710;52.520;13.352;2023-02-28T03:46:47;102808.16;;;5.49;52.59
31044;BME280;17710;52.520;13.352;2023-02-28T03:49:17;102810.78;;;5.49;52.60
31044;BME280;17710;52.520;13.352;2023-02-28T03:51:47;102810.44;;;5.31;53.42
31044;BME280;17710;52.520;13.352;2023-02-28T03:54:19;102812.69;;;5.11;53.65
31044;BME280;17710;52.520;13.352;2023-02-28T03:56:53;102813.78;;;5.24;53.13
31044;BME280;17710;52.520;13.352;2023-02-28T03:59:25;102806.81;;;5.25;54.01
31044;BME280;17710;52.520;13.352;2023-02-28T04:01:53;102812.72;;;5.14;54.26
31044;BME280;17710;52.520;13.352;2023-02-28T04:04:20;102811.91;;;5.17;53.73
31044;BME280;17710;52.520;13.352;2023-02-28T04:06:49;102808.25;;;5.09;53.82
31044;BME280;17710;52.520;13.352;2023-02-28T04:09:16;102816.31;;;5.18;53.51
31044;BME280;17710;52.520;13.352;2023-02-28T04:11:44;102815.06;;;5.44;53.38
31044;BME280;17710;52.520;13.352;2023-02-28T04:14:12;102814.66;;;5.23;54.07
31044;BME280;17710;52.520;13.352;2023-02-28T04:16:40;102817.13;;;5.15;53.61
31044;BME280;17710;52.520;13.352;2023-02-28T04:19:08;102810.91;;;5.10;54.13
31044;BME280;17710;52.520;13.352;2023-02-28T04:21:36;102808.22;;;5.07;54.31
31044;BME280;17710;52.520;13.352;2023-02-28T04:24:06;102815.19;;;5.07;54.10
31044;BME280;17710;52.520;13.352;2023-02-28T04:26:34;102821.13;;;4.97;54.41
31044;BME280;17710;52.520;13.352;2023-02-28T04:29:02;102816.19;;;5.13;53.36
31044;BME280;17710;52.520;13.352;2023-02-28T04:31:29;102819.41;;;5.00;54.80
31044;BME280;17710;52.520;13.352;2023-02-28T04:33:56;102827.34;;;5.03;54.17
31044;BME280;17710;52.520;13.352;2023-02-28T04:36:22;102828.22;;;5.02;54.59
31044;BME280;17710;52.520;13.352;2023-02-28T04:38:49;102824.50;;;4.91;54.58
31044;BME280;17710;52.520;13.352;2023-02-28T04:41:16;102822.19;;;5.08;54.44
31044;BME280;17710;52.520;13.352;2023-02-28T04:43:43;102824.63;;;4.97;54.82
31044;BME280;17710;52.520;13.352;2023-02-28T04:46:09;102824.38;;;4.87;54.74
31044;BME280;17710;52.520;13.352;2023-02-28T04:48:38;102829.00;;;4.98;54.63
31044;BME280;17710;52.520;13.352;2023-02-28T04:51:07;102823.00;;;5.04;54.92
31044;BME280;17710;52.520;13.352;2023-02-28T04:53:34;102821.13;;;4.97;54.80
31044;BME280;17710;52.520;13.352;2023-02-28T04:56:01;102826.63;;;5.10;54.55
31044;BME280;17710;52.520;13.352;2023-02-28T04:58:29;102823.78;;;5.00;54.61
31044;BME280;17710;52.520;13.352;2023-02-28T05:01:01;102823.97;;;5.09;53.93
31044;BME280;17710;52.520;13.352;2023-02-28T05:03:28;102828.28;;;5.05;54.45
31044;BME280;17710;52.520;13.352;2023-02-28T05:05:54;102839.25;;;4.88;55.11
31044;BME280;17710;52.520;13.352;2023-02-28T05:08:20;102840.38;;;4.99;54.41
31044;BME280;17710;52.520;13.352;2023-02-28T05:10:47;102833.31;;;4.96;54.38
31044;BME280;17710;52.520;13.352;2023-02-28T05:13:13;102833.66;;;5.13;53.77
31044;BME280;17710;52.520;13.352;2023-02-28T05:15:41;102834.03;;;4.89;54.75
31044;BME280;17710;52.520;13.352;2023-02-28T05:18:08;102836.84;;;4.97;53.97
31044;BME280;17710;52.520;13.352;2023-02-28T05:20:34;102842.41;;;4.73;54.96
31044;BME280;17710;52.520;13.352;2023-02-28T05:23:01;102841.88;;;4.88;54.22
31044;BME280;17710;52.520;13.352;2023-02-28T05:25:28;102844.47;;;4.88;54.93
31044;BME280;17710;52.520;13.352;2023-02-28T05:27:54;102840.09;;;4.85;54.49
31044;BME280;17710;52.520;13.352;2023-02-28T05:30:21;102848.34;;;4.64;55.04
31044;BME280;17710;52.520;13.352;2023-02-28T05:32:51;102840.84;;;4.81;54.51
31044;BME280;17710;52.520;13.352;2023-02-28T05:35:17;102841.66;;;4.77;54.44
31044;BME280;17710;52.520;13.352;2023-02-28T05:37:44;102844.09;;;4.69;55.32
31044;BME280;17710;52.520;13.352;2023-02-28T05:40:11;102849.50;;;4.77;54.62
31044;BME280;17710;52.520;13.352;2023-02-28T05:42:38;102849.56;;;4.80;55.16
31044;BME280;17710;52.520;13.352;2023-02-28T05:45:06;102851.25;;;4.76;55.74
31044;BME280;17710;52.520;13.352;2023-02-28T05:47:33;102852.75;;;4.67;55.41
31044;BME280;17710;52.520;13.352;2023-02-28T05:50:01;102857.19;;;4.69;55.82
31044;BME280;17710;52.520;13.352;2023-02-28T05:52:27;102860.03;;;4.78;55.15
31044;BME280;17710;52.520;13.352;2023-02-28T05:54:55;102863.00;;;4.95;54.93
31044;BME280;17710;52.520;13.352;2023-02-28T05:57:21;102856.88;;;4.95;54.41
31044;BME280;17710;52.520;13.352;2023-02-28T05:59:47;102861.09;;;4.88;54.57
31044;BME280;17710;52.520;13.352;2023-02-28T06:02:16;102862.75;;;4.83;54.87
31044;BME280;17710;52.520;13.352;2023-02-28T06:05:12;102864.25;;;4.72;55.69
31044;BME280;17710;52.520;13.352;2023-02-28T06:07:47;102861.69;;;4.75;55.55
31044;BME280;17710;52.520;13.352;2023-02-28T06:10:14;102858.59;;;4.94;54.72
31044;BME280;17710;52.520;13.352;2023-02-28T06:12:40;102860.66;;;4.68;55.84
31044;BME280;17710;52.520;13.352;2023-02-28T06:15:11;102865.28;;;4.80;55.18
31044;BME280;17710;52.520;13.352;2023-02-28T06:17:40;102867.13;;;4.84;55.13
31044;BME280;17710;52.520;13.352;2023-02-28T06:20:11;102871.22;;;4.73;55.26
31044;BME280;17710;52.520;13.352;2023-02-28T06:22:38;102880.53;;;4.99;54.77
31044;BME280;17710;52.520;13.352;2023-02-28T06:25:06;102870.13;;;5.02;54.55
31044;BME280;17710;52.520;13.352;2023-02-28T06:27:37;102872.06;;;5.12;54.17
31044;BME280;17710;52.520;13.352;2023-02-28T06:30:05;102875.97;;;4.89;54.43
31044;BME280;17710;52.520;13.352;2023-02-28T06:32:32;102877.28;;;5.09;54.33
31044;BME280;17710;52.520;13.352;2023-02-28T06:34:59;102891.34;;;5.14;54.13
31044;BME280;17710;52.520;13.352;2023-02-28T06:37:27;102887.00;;;5.15;54.44
31044;BME280;17710;52.520;13.352;2023-02-28T06:39:54;102890.25;;;5.47;53.10
31044;BME280;17710;52.520;13.352;2023-02-28T06:42:21;102886.78;;;5.48;53.07
31044;BME280;17710;52.520;13.352;2023-02-28T06:44:50;102897.06;;;5.39;53.44
31044;BME280;17710;52.520;13.352;2023-02-28T06:47:16;102897.91;;;5.81;52.77
31044;BME280;17710;52.520;13.352;2023-02-28T06:49:43;102896.56;;;5.56;52.77
31044;BME280;17710;52.520;13.352;2023-02-28T06:52:10;102898.53;;;5.68;52.60
31044;BME280;17710;52.520;13.352;2023-02-28T06:54:38;102897.84;;;5.78;52.22
31044;BME280;17710;52.520;13.352;2023-02-28T06:57:04;102898.34;;;6.03;51.90
31044;BME280;17710;52.520;13.352;2023-02-28T06:59:31;102904.06;;;5.85;52.09
31044;BME280;17710;52.520;13.352;2023-02-28T07:02:08;102906.97;;;5.97;51.86
31044;BME280;17710;52.520;13.352;2023-02-28T07:04:39;102900.31;;;6.16;52.11
31044;BME280;17710;52.520;13.352;2023-02-28T07:07:09;102906.13;;;6.52;50.99
31044;BME280;17710;52.520;13.352;2023-02-28T07:09:37;102895.88;;;6.67;50.52
31044;BME280;17710;52.520;13.352;2023-02-28T07:12:04;102904.66;;;6.69;50.11
31044;BME280;17710;52.520;13.352;2023-02-28T07:14:31;102901.72;;;6.51;50.37
31044;BME280;17710;52.520;13.352;2023-02-28T07:17:01;102903.66;;;6.61;49.92
31044;BME280;17710;52.520;13.352;2023-02-28T07:19:31;102904.28;;;6.45;49.51
31044;BME280;17710;52.520;13.352;2023-02-28T07:22:00;102905.88;;;6.96;48.85
31044;BME280;17710;52.520;13.352;2023-02-28T07:24:30;102901.44;;;6.89;49.43
31044;BME280;17710;52.520;13.352;2023-02-28T07:26:59;102904.88;;;6.86;49.42
31044;BME280;17710;52.520;13.352;2023-02-28T07:29:27;102900.84;;;7.11;48.22
31044;BME280;17710;52.520;13.352;2023-02-28T07:31:54;102906.78;;;6.98;47.72
31044;BME280;17710;52.520;13.352;2023-02-28T07:34:20;102908.75;;;7.12;46.89
31044;BME280;17710;52.520;13.352;2023-02-28T07:36:47;102911.50;;;7.22;46.48
31044;BME280;17710;52.520;13.352;2023-02-28T07:39:14;102903.63;;;7.22;46.05
31044;BME280;17710;52.520;13.352;2023-02-28T07:41:40;102910.19;;;7.61;46.43
31044;BME280;17710;52.520;13.352;2023-02-28T07:44:10;102905.03;;;7.69;46.30
31044;BME280;17710;52.520;13.352;2023-02-28T07:46:36;102905.06;;;7.71;45.10
31044;BME280;17710;52.520;13.352;2023-02-28T07:49:03;102905.13;;;7.78;45.19
31044;BME280;17710;52.520;13.352;2023-02-28T07:51:30;102908.06;;;8.07;43.66
31044;BME280;17710;52.520;13.352;2023-02-28T07:53:57;102905.50;;;8.21;40.33
31044;BME280;17710;52.520;13.352;2023-02-28T07:56:23;102907.97;;;8.01;40.43
31044;BME280;17710;52.520;13.352;2023-02-28T07:58:49;102913.63;;;8.39;38.86
31044;BME280;17710;52.520;13.352;2023-02-28T08:01:17;102901.34;;;8.43;36.62
31044;BME280;17710;52.520;13.352;2023-02-28T08:03:44;102908.13;;;8.13;38.28
31044;BME280;17710;52.520;13.352;2023-02-28T08:06:17;102912.84;;;8.51;36.44
31044;BME280;17710;52.520;13.352;2023-02-28T08:08:44;102913.69;;;8.48;35.59
31044;BME280;17710;52.520;13.352;2023-02-28T08:11:10;102904.50;;;8.04;33.39
31044;BME280;17710;52.520;13.352;2023-02-28T08:13:37;102911.06;;;8.50;34.02
31044;BME280;17710;52.520;13.352;2023-02-28T08:16:07;102910.13;;;8.42;33.08
31044;BME280;17710;52.520;13.352;2023-02-28T08:18:35;102909.28;;;8.49;32.82
31044;BME280;17710;52.520;13.352;2023-02-28T08:21:06;102915.31;;;8.31;32.59
31044;BME280;17710;52.520;13.352;2023-02-28T08:23:32;102904.09;;;8.58;32.47
31044;BME280;17710;52.520;13.352;2023-02-28T08:26:00;102898.97;;;8.80;32.53
31044;BME280;17710;52.520;13.352;2023-02-28T08:28:27;102907.81;;;8.86;32.42
31044;BME280;17710;52.520;13.352;2023-02-28T08:30:53;102907.09;;;9.22;32.36
31044;BME280;17710;52.520;13.352;2023-02-28T08:33:20;102906.97;;;8.97;31.37
31044;BME280;17710;52.520;13.352;2023-02-28T08:35:52;102911.44;;;9.13;30.47
31044;BME280;17710;52.520;13.352;2023-02-28T08:38:18;102911.53;;;9.30;30.88
31044;BME280;17710;52.520;13.352;2023-02-28T08:40:45;102903.66;;;9.41;30.96
31044;BME280;17710;52.520;13.352;2023-02-28T08:43:11;102908.09;;;9.54;30.57
31044;BME280;17710;52.520;13.352;2023-02-28T08:45:38;102923.91;;;9.48;30.48
31044;BME280;17710;52.520;13.352;2023-02-28T08:48:07;102905.44;;;9.48;29.49
31044;BME280;17710;52.520;13.352;2023-02-28T08:50:33;102916.00;;;9.48;30.10
31044;BME280;17710;52.520;13.352;2023-02-28T08:53:01;102910.84;;;10.03;29.39
31044;BME280;17710;52.520;13.352;2023-02-28T08:55:28;102909.97;;;10.08;28.83
31044;BME280;17710;52.520;13.352;2023-02-28T08:57:54;102908.13;;;9.78;28.65
31044;BME280;17710;52.520;13.352;2023-02-28T09:00:22;102912.53;;;9.73;29.07
31044;BME280;17710;52.520;13.352;2023-02-28T09:02:48;102912.53;;;9.69;28.62
31044;BME280;17710;52.520;13.352;2023-02-28T09:05:15;102908.19;;;9.99;28.21
31044;BME280;17710;52.520;13.352;2023-02-28T09:07:41;102915.25;;;9.97;28.54
31044;BME280;17710;52.520;13.352;2023-02-28T09:10:10;102910.81;;;9.99;28.30
31044;BME280;17710;52.520;13.352;2023-02-28T09:12:36;102916.06;;;9.65;28.20
31044;BME280;17710;52.520;13.352;2023-02-28T09:15:04;102909.06;;;9.95;28.27
31044;BME280;17710;52.520;13.352;2023-02-28T09:17:30;102912.59;;;10.10;28.19
31044;BME280;17710;52.520;13.352;2023-02-28T09:19:57;102915.22;;;9.84;28.10
31044;BME280;17710;52.520;13.352;2023-02-28T09:22:24;102918.78;;;10.10;28.24
31044;BME280;17710;52.520;13.352;2023-02-28T09:24:51;102909.13;;;10.36;28.30
31044;BME280;17710;52.520;13.352;2023-02-28T09:27:18;102917.88;;;10.04;27.32
31044;BME280;17710;52.520;13.352;2023-02-28T09:29:45;102909.94;;;9.82;28.04
31044;BME280;17710;52.520;13.352;2023-02-28T09:32:11;102909.13;;;10.17;28.27
31044;BME280;17710;52.520;13.352;2023-02-28T09:34:38;102903.84;;;10.23;27.51
31044;BME280;17710;52.520;13.352;2023-02-28T09:37:04;102907.28;;;10.78;27.83
31044;BME280;17710;52.520;13.352;2023-02-28T09:39:31;102906.47;;;10.62;27.07
31044;BME280;17710;52.520;13.352;2023-02-28T09:41:57;102903.78;;;10.64;27.22
31044;BME280;17710;52.520;13.352;2023-02-28T09:44:30;102910.84;;;10.57;27.08
31044;BME280;17710;52.520;13.352;2023-02-28T09:47:00;102917.91;;;10.40;27.08
31044;BME280;17710;52.520;13.352;2023-02-28T09:49:34;102912.59;;;10.70;27.15
31044;BME280;17710;52.520;13.352;2023-02-28T09:52:05;102909.09;;;10.47;27.52
31044;BME280;17710;52.520;13.352;2023-02-28T09:54:35;102917.03;;;10.47;27.23
31044;BME280;17710;52.520;13.352;2023-02-28T09:57:06;102910.88;;;10.36;27.62
31044;BME280;17710;52.520;13.352;2023-02-28T09:59:41;102912.63;;;10.49;27.01
31044;BME280;17710;52.520;13.352;2023-02-28T10:02:19;102910.84;;;10.66;27.38
31044;BME280;17710;52.520;13.352;2023-02-28T10:04:50;102907.31;;;10.67;27.73
31044;BME280;17710;52.520;13.352;2023-02-28T10:07:33;102913.53;;;10.50;27.35
31044;BME280;17710;52.520;13.352;2023-02-28T10:10:07;102909.91;;;10.90;26.93
31044;BME280;17710;52.520;13.352;2023-02-28T10:12:43;102909.06;;;10.71;27.08
31044;BME280;17710;52.520;13.352;2023-02-28T10:15:15;102910.78;;;10.94;26.90
31044;BME280;17710;52.520;13.352;2023-02-28T10:17:45;102911.72;;;10.81;27.18
31044;BME280;17710;52.520;13.352;2023-02-28T10:20:16;102909.91;;;10.93;27.10
31044;BME280;17710;52.520;13.352;2023-02-28T10:22:52;102919.59;;;10.94;26.89
31044;BME280;17710;52.520;13.352;2023-02-28T10:25:21;102912.50;;;11.10;26.87
31044;BME280;17710;52.520;13.352;2023-02-28T10:27:49;102912.47;;;11.16;26.98
31044;BME280;17710;52.520;13.352;2023-02-28T10:30:17;102914.19;;;11.32;26.23
31044;BME280;17710;52.520;13.352;2023-02-28T10:32:49;102908.13;;;10.91;26.61
31044;BME280;17710;52.520;13.352;2023-02-28T10:35:17;102911.72;;;10.82;26.91
31044;BME280;17710;52.520;13.352;2023-02-28T10:37:45;102901.94;;;11.04;26.98
31044;BME280;17710;52.520;13.352;2023-02-28T10:40:27;102904.56;;;11.04;26.60
31044;BME280;17710;52.520;13.352;2023-02-28T10:42:58;102906.25;;;11.25;26.85
31044;BME280;17710;52.520;13.352;2023-02-28T10:45:28;102907.28;;;10.86;26.86
31044;BME280;17710;52.520;13.352;2023-02-28T10:47:59;102913.47;;;10.89;27.04
31044;BME280;17710;52.520;13.352;2023-02-28T10:50:30;102910.78;;;10.94;27.23
31044;BME280;17710;52.520;13.352;2023-02-28T10:53:10;102905.53;;;10.78;27.20
31044;BME280;17710;52.520;13.352;2023-02-28T10:55:40;102902.91;;;10.68;27.16
31044;BME280;17710;52.520;13.352;2023-02-28T10:58:26;102894.06;;;10.86;27.08
31044;BME280;17710;52.520;13.352;2023-02-28T11:01:13;102895.00;;;10.59;27.72
31044;BME280;17710;52.520;13.352;2023-02-28T11:03:40;102900.19;;;10.97;27.64
31044;BME280;17710;52.520;13.352;2023-02-28T11:06:13;102884.31;;;11.00;27.52
31044;BME280;17710;52.520;13.352;2023-02-28T11:08:46;102883.50;;;10.81;27.66
31044;BME280;17710;52.520;13.352;2023-02-28T11:11:14;102884.41;;;10.60;27.21
31044;BME280;17710;52.520;13.352;2023-02-28T11:13:43;102880.72;;;11.16;27.43
31044;BME280;17710;52.520;13.352;2023-02-28T11:16:13;102879.00;;;11.06;27.45
31044;BME280;17710;52.520;13.352;2023-02-28T11:18:42;102878.09;;;11.13;27.00
31044;BME280;17710;52.520;13.352;2023-02-28T11:21:16;102867.59;;;10.93;26.95
31044;BME280;17710;52.520;13.352;2023-02-28T11:23:43;102877.38;;;10.62;27.31
31044;BME280;17710;52.520;13.352;2023-02-28T11:26:10;102865.00;;;10.75;27.12
31044;BME280;17710;52.520;13.352;2023-02-28T11:28:39;102863.19;;;10.85;27.31
31044;BME280;17710;52.520;13.352;2023-02-28T11:31:17;102865.88;;;10.72;27.63
31044;BME280;17710;52.520;13.352;2023-02-28T11:33:46;102862.38;;;10.64;27.58
31044;BME280;17710;52.520;13.352;2023-02-28T11:36:18;102865.88;;;10.74;27.86
31044;BME280;17710;52.520;13.352;2023-02-28T11:38:46;102861.50;;;10.59;28.09
31044;BME280;17710;52.520;13.352;2023-02-28T11:41:39;102857.06;;;10.75;27.48
31044;BME280;17710;52.520;13.352;2023-02-28T11:44:22;102856.16;;;10.88;27.20
31044;BME280;17710;52.520;13.352;2023-02-28T11:46:52;102854.50;;;10.40;27.73
31044;BME280;17710;52.520;13.352;2023-02-28T11:49:30;102860.66;;;10.25;28.23
31044;BME280;17710;52.520;13.352;2023-02-28T11:52:02;102868.56;;;10.51;28.43
31044;BME280;17710;52.520;13.352;2023-02-28T11:54:46;102872.09;;;10.56;28.02
31044;BME280;17710;52.520;13.352;2023-02-28T11:57:28;102871.22;;;10.48;28.08
31044;BME280;17710;52.520;13.352;2023-02-28T12:00:03;102863.31;;;10.50;28.32
31044;BME280;17710;52.520;13.352;2023-02-28T12:02:47;102855.34;;;10.53;27.89
31044;BME280;17710;52.520;13.352;2023-02-28T12:05:24;102859.72;;;10.67;28.06
31044;BME280;17710;52.520;13.352;2023-02-28T12:08:03;102857.09;;;10.57;27.65
31044;BME280;17710;52.520;13.352;2023-02-28T12:10:37;102856.25;;;10.56;27.91
31044;BME280;17710;52.520;13.352;2023-02-28T12:13:12;102861.53;;;10.41;28.20
31044;BME280;17710;52.520;13.352;2023-02-28T12:15:56;102856.25;;;10.38;28.53
31044;BME280;17710;52.520;13.352;2023-02-28T12:18:38;102852.69;;;10.60;27.99
31044;BME280;17710;52.520;13.352;2023-02-28T12:21:14;102854.50;;;10.42;28.67
31044;BME280;17710;52.520;13.352;2023-02-28T12:23:56;102855.34;;;10.54;28.31
31044;BME280;17710;52.520;13.352;2023-02-28T12:26:32;102843.00;;;10.62;28.35
31044;BME280;17710;52.520;13.352;2023-02-28T12:29:04;102848.22;;;10.81;28.06
31044;BME280;17710;52.520;13.352;2023-02-28T12:31:36;102842.91;;;10.84;28.43
31044;BME280;17710;52.520;13.352;2023-02-28T12:34:10;102838.50;;;10.86;28.16
31044;BME280;17710;52.520;13.352;2023-02-28T12:36:39;102840.31;;;10.71;28.34
31044;BME280;17710;52.520;13.352;2023-02-28T12:39:10;102835.03;;;10.71;28.32
31044;BME280;17710;52.520;13.352;2023-02-28T12:41:42;102819.94;;;10.99;28.02
31044;BME280;17710;52.520;13.352;2023-02-28T12:44:14;102814.69;;;10.92;27.60
31044;BME280;17710;52.520;13.352;2023-02-28T12:46:47;102804.94;;;11.00;27.66
31044;BME280;17710;52.520;13.352;2023-02-28T12:49:19;102804.88;;;11.12;27.57
31044;BME280;17710;52.520;13.352;2023-02-28T12:51:48;102797.91;;;10.97;27.61
31044;BME280;17710;52.520;13.352;2023-02-28T12:54:20;102797.91;;;11.02;27.84
31044;BME280;17710;52.520;13.352;2023-02-28T12:56:54;102795.13;;;11.28;27.97
31044;BME280;17710;52.520;13.352;2023-02-28T12:59:25;102781.75;;;11.44;27.66
31044;BME280;17710;52.520;13.352;2023-02-28T13:02:23;102786.16;;;11.48;27.58
31044;BME280;17710;52.520;13.352;2023-02-28T13:05:07;102781.53;;;11.76;27.09